Time;durP1;ratioP1;P1;durP2;ratioP2;P2;SDS_P1;SDS_P2;PMS_P1;PMS_P2;Temp;Humidity;BMP_temperature;BMP_pressure;BME280_temperature;BME280_humidity;BME280_pressure;Samples;Min_cycle;Max_cycle;Signal;HPM_P1;HPM_P2
2022/03/22 00:00:08;;;;;;;;;;;;;;;26.83;55.68;98510.94;619939;229;65230;-65
2022/03/22 00:02:39;;;;;;;;;;;;;;;26.81;56.04;98515.78;620059;229;39171;-65
2022/03/22 00:05:06;;;;;;;;;;;;;;;26.79;55.24;98516.88;619988;229;64834;-65
2022/03/22 00:07:34;;;;;;;;;;;;;;;26.81;55.34;98515.78;619926;229;63264;-65
2022/03/22 00:10:01;;;;;;;;;;;;;;;26.77;56.37;98524.42;619974;229;67065;-65
2022/03/22 00:12:29;;;;;;;;;;;;;;;26.77;56.30;98532.52;619938;229;67042;-65
2022/03/22 00:14:58;;;;;;;;;;;;;;;26.76;55.48;98522.82;619917;229;62721;-65
2022/03/22 00:17:26;;;;;;;;;;;;;;;26.75;56.27;98531.97;620438;228;67100;-65
2022/03/22 00:19:53;;;;;;;;;;;;;;;26.73;56.53;98526.03;621945;228;66806;-65
2022/03/22 00:22:21;;;;;;;;;;;;;;;26.73;55.96;98522.53;621938;228;64042;-65
2022/03/22 00:24:49;;;;;;;;;;;;;;;26.73;56.62;98522.53;621923;228;65070;-65
2022/03/22 00:27:16;;;;;;;;;;;;;;;26.71;56.13;98514.73;621933;228;66998;-65
2022/03/22 00:29:44;;;;;;;;;;;;;;;26.72;56.30;98520.93;621994;228;63355;-65
2022/03/22 00:32:12;;;;;;;;;;;;;;;26.71;56.35;98520.13;621956;228;67878;-65
2022/03/22 00:34:44;;;;;;;;;;;;;;;26.72;56.09;98515.53;621989;228;66805;-65
2022/03/22 00:37:09;;;;;;;;;;;;;;;26.68;56.49;98515.28;621826;228;65298;-65
2022/03/22 00:39:38;;;;;;;;;;;;;;;26.69;56.33;98511.49;621926;228;64918;-65
2022/03/22 00:42:05;;;;;;;;;;;;;;;26.68;56.88;98520.67;621922;228;67515;-65
2022/03/22 00:44:33;;;;;;;;;;;;;;;26.67;56.69;98515.54;621984;228;65114;-65
2022/03/22 00:47:00;;;;;;;;;;;;;;;26.67;57.85;98512.84;621901;228;67015;-65
2022/03/22 00:49:27;;;;;;;;;;;;;;;26.64;57.17;98508.00;621958;228;67080;-65
2022/03/22 00:51:55;;;;;;;;;;;;;;;26.64;56.95;98506.11;621932;228;63242;-65
2022/03/22 00:54:23;;;;;;;;;;;;;;;26.63;57.32;98507.20;621926;228;64665;-65
2022/03/22 00:56:53;;;;;;;;;;;;;;;26.62;56.75;98500.17;621979;228;67096;-65
2022/03/22 01:02:05;;;;;;;;;;;;;;;26.62;57.05;98491.28;621956;228;66965;-65
2022/03/22 01:04:32;;;;;;;;;;;;;;;26.62;55.55;98496.67;621945;228;67114;-65
2022/03/22 01:07:00;;;;;;;;;;;;;;;26.60;57.17;98488.88;621884;228;65163;-64
2022/03/22 01:09:28;;;;;;;;;;;;;;;26.59;55.79;98494.52;621918;228;67441;-64
2022/03/22 01:11:57;;;;;;;;;;;;;;;26.59;57.87;98481.05;621954;228;67010;-64
2022/03/22 01:14:28;;;;;;;;;;;;;;;26.55;57.63;98489.67;621937;228;65343;-65
2022/03/22 01:16:56;;;;;;;;;;;;;;;26.56;56.44;98485.09;621895;227;64912;-65
2022/03/22 01:19:23;;;;;;;;;;;;;;;26.53;57.24;98477.55;621940;228;64797;-65
2022/03/22 01:21:51;;;;;;;;;;;;;;;26.53;57.73;98480.24;621929;228;63129;-65
2022/03/22 01:24:21;;;;;;;;;;;;;;;26.54;57.05;98477.26;621938;228;65162;-66
2022/03/22 01:26:48;;;;;;;;;;;;;;;26.53;57.13;98474.84;621933;228;65912;-66
2022/03/22 01:29:15;;;;;;;;;;;;;;;26.51;57.37;98468.91;621930;228;65118;-66
2022/03/22 01:31:44;;;;;;;;;;;;;;;26.51;57.42;98466.22;621896;228;67257;-66
2022/03/22 01:34:12;;;;;;;;;;;;;;;26.50;58.14;98467.28;621956;228;67033;-65
2022/03/22 01:36:39;;;;;;;;;;;;;;;26.49;56.47;98465.64;621961;228;65130;-65
2022/03/22 01:39:07;;;;;;;;;;;;;;;26.49;56.45;98468.34;621950;228;67135;-65
2022/03/22 01:41:35;;;;;;;;;;;;;;;26.49;55.92;98465.64;621925;228;67209;-65
2022/03/22 01:44:03;;;;;;;;;;;;;;;26.47;57.41;98470.52;621880;228;65203;-65
2022/03/22 01:46:32;;;;;;;;;;;;;;;26.45;56.49;98462.70;621826;228;65155;-65
2022/03/22 01:49:00;;;;;;;;;;;;;;;26.46;57.41;98467.00;621813;228;64572;-66
2022/03/22 01:51:28;;;;;;;;;;;;;;;26.45;58.38;98464.59;621916;227;65365;-66
2022/03/22 01:53:56;;;;;;;;;;;;;;;26.43;56.86;98466.73;621915;228;64814;-66
2022/03/22 01:56:24;;;;;;;;;;;;;;;26.45;58.02;98467.28;621899;228;65353;-66
2022/03/22 01:58:55;;;;;;;;;;;;;;;26.43;57.34;98464.84;621926;228;63263;-66
2022/03/22 02:06:54;;;;;;;;;;;;;;;26.40;56.49;98467.28;621923;228;62653;-65
2022/03/22 02:09:21;;;;;;;;;;;;;;;26.40;55.84;98467.28;621932;228;67276;-65
2022/03/22 02:11:49;;;;;;;;;;;;;;;26.37;55.34;98468.63;621922;228;67076;-65
2022/03/22 02:14:16;;;;;;;;;;;;;;;26.37;55.52;98457.85;621940;228;65290;-65
2022/03/22 02:16:44;;;;;;;;;;;;;;;26.37;57.80;98465.94;621950;228;66871;-65
2022/03/22 02:19:12;;;;;;;;;;;;;;;26.35;55.70;98460.84;621886;228;66997;-65
2022/03/22 02:21:41;;;;;;;;;;;;;;;26.34;57.02;98450.31;621937;228;65214;-65
2022/03/22 02:24:08;;;;;;;;;;;;;;;26.35;56.75;98457.31;621971;228;67428;-65
2022/03/22 02:26:39;;;;;;;;;;;;;;;26.32;53.71;98455.96;621945;228;64916;-65
2022/03/22 02:29:06;;;;;;;;;;;;;;;26.33;55.04;98451.41;621930;228;65329;-65
2022/03/22 02:31:34;;;;;;;;;;;;;;;26.32;54.47;98452.47;622003;228;66995;-65
2022/03/22 02:34:01;;;;;;;;;;;;;;;26.31;54.56;98451.66;621963;228;67028;-65
2022/03/22 02:36:29;;;;;;;;;;;;;;;26.32;55.32;98457.86;621993;228;65149;-65
2022/03/22 02:38:56;;;;;;;;;;;;;;;26.30;57.41;98452.75;621990;228;66896;-65
2022/03/22 02:41:25;;;;;;;;;;;;;;;26.29;56.07;98447.63;621948;228;65481;-65
2022/03/22 02:43:53;;;;;;;;;;;;;;;26.28;54.36;98454.91;622018;228;65397;-65
2022/03/22 02:46:22;;;;;;;;;;;;;;;26.26;53.79;98443.58;621936;228;67009;-65
2022/03/22 02:48:51;;;;;;;;;;;;;;;26.27;56.76;98449.77;621961;228;66857;-65
2022/03/22 02:51:19;;;;;;;;;;;;;;;26.25;54.74;98455.45;621995;228;65310;-65
2022/03/22 02:53:46;;;;;;;;;;;;;;;26.26;57.92;98448.16;621944;228;66877;-65
2022/03/22 02:56:14;;;;;;;;;;;;;;;26.25;54.54;98452.75;622011;228;64723;-65
2022/03/22 02:58:41;;;;;;;;;;;;;;;26.23;55.04;98446.02;621968;228;66176;-65
2022/03/22 03:01:09;;;;;;;;;;;;;;;26.22;54.71;98439.83;621945;228;66992;-65
2022/03/22 03:03:37;;;;;;;;;;;;;;;26.21;55.69;98446.27;621992;228;66847;-65
2022/03/22 03:06:06;;;;;;;;;;;;;;;26.20;54.61;98439.28;621932;228;65265;-65
2022/03/22 03:08:33;;;;;;;;;;;;;;;26.19;55.03;98434.98;621964;228;67194;-65
2022/03/22 03:11:01;;;;;;;;;;;;;;;26.17;55.35;98431.74;621965;228;65452;-65
2022/03/22 03:14:38;;;;;;;;;;;;;;;26.18;54.36;98435.23;621946;228;65428;-65
2022/03/22 03:15:57;;;;;;;;;;;;;;;26.17;53.94;98434.44;620828;228;68168;-65
2022/03/22 03:18:25;;;;;;;;;;;;;;;26.16;55.32;98440.88;621940;228;66907;-65
2022/03/22 03:20:52;;;;;;;;;;;;;;;26.15;56.37;98439.28;621916;228;65240;-65
2022/03/22 03:23:21;;;;;;;;;;;;;;;26.15;55.75;98441.97;621977;228;67794;-65
2022/03/22 03:25:48;;;;;;;;;;;;;;;26.13;56.60;98436.04;621965;228;66951;-65
2022/03/22 03:28:16;;;;;;;;;;;;;;;26.12;56.12;98435.23;621949;228;65413;-65
2022/03/22 03:30:43;;;;;;;;;;;;;;;26.12;55.26;98435.23;621947;228;66907;-65
2022/03/22 03:33:11;;;;;;;;;;;;;;;26.10;55.22;98429.30;621932;228;67174;-65
2022/03/22 03:35:38;;;;;;;;;;;;;;;26.09;53.95;98429.59;621941;228;64052;-65
2022/03/22 03:38:06;;;;;;;;;;;;;;;26.09;54.72;98426.90;621968;228;67222;-65
2022/03/22 03:43:19;;;;;;;;;;;;;;;26.07;55.79;98429.84;621938;228;63251;-65
2022/03/22 03:48:32;;;;;;;;;;;;;;;26.06;55.10;98422.05;621949;228;65147;-64
2022/03/22 03:51:00;;;;;;;;;;;;;;;26.04;55.13;98421.51;621999;228;65265;-64
2022/03/22 03:53:28;;;;;;;;;;;;;;;26.03;55.47;98423.40;621977;228;67188;-64
2022/03/22 03:55:55;;;;;;;;;;;;;;;26.00;54.32;98423.94;621932;228;67067;-64
2022/03/22 03:58:23;;;;;;;;;;;;;;;26.02;58.38;98419.07;621921;228;65230;-64
2022/03/22 04:00:50;;;;;;;;;;;;;;;26.00;56.07;98415.03;621904;228;67197;-64
2022/03/22 04:03:17;;;;;;;;;;;;;;;26.01;58.28;98424.75;622016;228;67077;-64
2022/03/22 04:05:45;;;;;;;;;;;;;;;25.98;56.40;98426.09;621945;228;65234;-64
2022/03/22 04:08:12;;;;;;;;;;;;;;;25.99;59.24;98426.89;621913;228;67319;-64
2022/03/22 04:10:41;;;;;;;;;;;;;;;25.97;56.83;98423.66;621941;228;64576;-64
2022/03/22 04:13:08;;;;;;;;;;;;;;;25.96;56.79;98428.23;621909;228;65152;-64
2022/03/22 04:15:36;;;;;;;;;;;;;;;25.94;57.15;98424.20;621916;228;67208;-64
2022/03/22 04:18:04;;;;;;;;;;;;;;;25.94;59.08;98421.50;621970;228;67007;-64
2022/03/22 04:20:31;;;;;;;;;;;;;;;25.91;59.24;98420.95;621950;228;63126;-64
2022/03/22 04:22:59;;;;;;;;;;;;;;;25.91;57.15;98422.84;621921;228;67301;-64
2022/03/22 04:25:26;;;;;;;;;;;;;;;25.90;59.62;98423.94;621907;228;67397;-64
2022/03/22 04:33:25;;;;;;;;;;;;;;;25.87;59.09;98411.81;621986;228;66991;-65
2022/03/22 04:35:53;;;;;;;;;;;;;;;25.84;56.82;98417.74;621903;228;63156;-64
2022/03/22 04:38:20;;;;;;;;;;;;;;;25.79;60.85;98409.63;621935;228;64834;-65
2022/03/22 04:40:48;;;;;;;;;;;;;;;25.78;60.70;98410.72;621947;228;65003;-65
2022/03/22 04:43:16;;;;;;;;;;;;;;;25.76;60.99;98410.17;621956;228;65260;-65
2022/03/22 04:45:44;;;;;;;;;;;;;;;25.78;61.27;98409.88;621981;228;66993;-65
2022/03/22 04:48:11;;;;;;;;;;;;;;;25.77;58.96;98406.38;621927;228;67067;-65
2022/03/22 04:50:40;;;;;;;;;;;;;;;25.79;57.58;98406.94;621717;228;65118;-64
2022/03/22 04:58:39;;;;;;;;;;;;;;;25.79;60.33;98411.52;621929;228;64121;-67
2022/03/22 05:01:07;;;;;;;;;;;;;;;25.73;61.71;98416.09;621952;228;65796;-67
2022/03/22 05:03:34;;;;;;;;;;;;;;;25.70;61.18;98408.55;621917;228;64831;-65
2022/03/22 05:08:49;;;;;;;;;;;;;;;25.66;61.82;98421.72;621938;228;64553;-66
2022/03/22 05:11:18;;;;;;;;;;;;;;;25.67;61.29;98415.28;621802;228;64669;-66
2022/03/22 05:13:46;;;;;;;;;;;;;;;25.63;61.37;98414.19;621929;228;63236;-68
2022/03/22 05:16:14;;;;;;;;;;;;;;;25.62;61.85;98409.89;621896;228;64821;-66
2022/03/22 05:18:42;;;;;;;;;;;;;;;25.65;60.10;98403.16;621906;228;66980;-67
2022/03/22 05:21:09;;;;;;;;;;;;;;;25.65;61.28;98405.85;621927;228;62999;-65
2022/03/22 05:23:37;;;;;;;;;;;;;;;25.67;59.93;98398.30;621937;228;64801;-67
2022/03/22 05:26:05;;;;;;;;;;;;;;;25.66;62.14;98394.00;621903;228;67051;-66
2022/03/22 05:28:33;;;;;;;;;;;;;;;25.65;61.66;98392.39;621940;228;64098;-65
2022/03/22 05:31:01;;;;;;;;;;;;;;;25.65;61.80;98400.47;621964;228;67246;-65
2022/03/22 05:33:28;;;;;;;;;;;;;;;25.63;61.13;98399.92;621965;228;64446;-65
2022/03/22 05:35:56;;;;;;;;;;;;;;;25.64;61.42;98390.76;621901;228;62989;-65
2022/03/22 05:38:27;;;;;;;;;;;;;;;25.63;58.48;98389.16;621868;228;65136;-65
2022/03/22 05:40:56;;;;;;;;;;;;;;;25.59;62.57;98402.34;621922;228;67282;-65
2022/03/22 05:43:25;;;;;;;;;;;;;;;25.60;61.92;98400.46;621935;228;65250;-65
2022/03/22 05:45:52;;;;;;;;;;;;;;;25.61;59.12;98399.38;621931;228;65033;-65
2022/03/22 05:48:20;;;;;;;;;;;;;;;25.64;59.86;98409.60;621948;228;64918;-65
2022/03/22 05:50:47;;;;;;;;;;;;;;;25.65;60.54;98412.04;621928;228;64139;-65
2022/03/22 05:53:15;;;;;;;;;;;;;;;25.65;59.11;98403.16;621808;228;64814;-65
2022/03/22 05:55:43;;;;;;;;;;;;;;;25.64;60.09;98404.22;622003;228;65603;-65
2022/03/22 05:58:11;;;;;;;;;;;;;;;25.64;62.53;98404.22;621987;228;63148;-65
2022/03/22 06:00:38;;;;;;;;;;;;;;;25.62;58.74;98407.20;621982;228;66919;-65
2022/03/22 06:03:06;;;;;;;;;;;;;;;25.62;60.36;98407.20;621944;228;66888;-65
2022/03/22 06:05:34;;;;;;;;;;;;;;;25.60;61.43;98409.34;621885;228;65311;-65
2022/03/22 06:08:01;;;;;;;;;;;;;;;25.61;60.63;98400.17;622021;228;67435;-65
2022/03/22 06:10:29;;;;;;;;;;;;;;;25.63;58.03;98403.41;621954;228;67038;-65
2022/03/22 06:12:59;;;;;;;;;;;;;;;25.65;57.89;98401.27;621951;228;65413;-65
2022/03/22 06:15:28;;;;;;;;;;;;;;;25.66;58.11;98404.77;621939;228;67255;-65
2022/03/22 06:17:57;;;;;;;;;;;;;;;25.66;58.91;98396.69;621899;227;67060;-65
2022/03/22 06:20:26;;;;;;;;;;;;;;;25.65;56.99;98389.70;621692;228;65402;-65
2022/03/22 06:22:55;;;;;;;;;;;;;;;25.64;56.27;98388.87;622004;228;67205;-65
2022/03/22 06:25:23;;;;;;;;;;;;;;;25.64;55.79;98386.17;621920;228;67072;-66
2022/03/22 06:27:51;;;;;;;;;;;;;;;25.66;60.02;98377.84;621917;228;65257;-66
2022/03/22 06:30:19;;;;;;;;;;;;;;;25.64;56.46;98378.09;621925;228;67301;-65
2022/03/22 06:32:48;;;;;;;;;;;;;;;25.66;58.97;98381.34;621920;228;66997;-66
2022/03/22 06:35:17;;;;;;;;;;;;;;;25.66;59.97;98394.00;621716;228;65155;-66
2022/03/22 06:37:45;;;;;;;;;;;;;;;25.63;61.15;98399.92;621940;228;67064;-65
2022/03/22 06:40:14;;;;;;;;;;;;;;;25.59;61.92;98396.13;621972;228;66821;-65
2022/03/22 06:42:42;;;;;;;;;;;;;;;25.58;62.82;98391.84;621944;228;66004;-65
2022/03/22 06:45:13;;;;;;;;;;;;;;;25.61;59.68;98388.61;621942;228;67327;-65
2022/03/22 06:47:42;;;;;;;;;;;;;;;25.58;60.98;98399.91;622085;228;64373;-66
2022/03/22 06:50:11;;;;;;;;;;;;;;;25.57;61.43;98398.30;622014;228;63160;-65
2022/03/22 06:52:39;;;;;;;;;;;;;;;25.56;61.52;98402.86;621929;228;66938;-66
2022/03/22 06:55:07;;;;;;;;;;;;;;;25.57;61.41;98406.38;621951;228;67156;-66
2022/03/22 06:57:35;;;;;;;;;;;;;;;25.56;61.57;98404.75;621816;228;65346;-66
2022/03/22 07:00:04;;;;;;;;;;;;;;;25.57;61.26;98403.69;621927;228;66900;-66
2022/03/22 07:02:32;;;;;;;;;;;;;;;25.55;61.10;98406.63;622017;228;66869;-71
2022/03/22 07:05:00;;;;;;;;;;;;;;;25.59;59.64;98412.28;621972;228;65273;-72
2022/03/22 07:07:27;;;;;;;;;;;;;;;25.59;59.50;98414.98;621929;228;66776;-66
2022/03/22 07:09:55;;;;;;;;;;;;;;;25.58;62.19;98422.25;621912;228;64773;-67
2022/03/22 07:12:22;;;;;;;;;;;;;;;25.55;60.81;98417.41;621839;228;63810;-66
2022/03/22 07:14:50;;;;;;;;;;;;;;;25.55;61.11;98416.60;621392;228;66785;-68
2022/03/22 07:17:18;;;;;;;;;;;;;;;25.54;60.78;98415.80;617507;228;67011;-67
2022/03/22 07:19:45;;;;;;;;;;;;;;;25.54;60.76;98415.80;607903;233;65363;-67
2022/03/22 07:22:13;;;;;;;;;;;;;;;25.55;60.79;98416.60;607769;232;67455;-67
2022/03/22 07:24:41;;;;;;;;;;;;;;;25.54;58.96;98412.30;607589;233;64664;-62
2022/03/22 07:27:10;;;;;;;;;;;;;;;25.55;60.69;98417.41;607836;233;63190;-64
2022/03/22 07:29:38;;;;;;;;;;;;;;;25.55;61.17;98412.02;607890;233;67225;-65
2022/03/22 07:32:06;;;;;;;;;;;;;;;25.56;60.15;98424.39;607914;233;66856;-66
2022/03/22 07:34:33;;;;;;;;;;;;;;;25.57;60.29;98411.77;607875;233;65516;-66
2022/03/22 07:37:01;;;;;;;;;;;;;;;25.57;60.88;98409.88;607890;233;64825;-66
2022/03/22 07:39:29;;;;;;;;;;;;;;;25.56;56.52;98415.52;607884;233;64666;-66
2022/03/22 07:41:57;;;;;;;;;;;;;;;25.61;59.51;98410.14;607937;233;65267;-67
2022/03/22 07:44:24;;;;;;;;;;;;;;;25.63;59.20;98408.00;607870;233;67186;-65
2022/03/22 07:46:52;;;;;;;;;;;;;;;25.65;59.27;98405.85;607865;233;64807;-62
2022/03/22 07:54:51;;;;;;;;;;;;;;;25.71;58.97;98403.97;607989;233;64862;-62
2022/03/22 07:57:19;;;;;;;;;;;;;;;25.73;59.18;98402.63;607830;233;63016;-62
2022/03/22 07:59:47;;;;;;;;;;;;;;;25.75;59.39;98395.06;607989;232;67210;-67
2022/03/22 08:02:14;;;;;;;;;;;;;;;25.73;54.14;98391.86;608569;232;66847;-68
2022/03/22 08:04:42;;;;;;;;;;;;;;;25.77;57.80;98387.53;608317;232;65209;-68
2022/03/22 08:07:09;;;;;;;;;;;;;;;25.79;58.00;98385.39;608043;233;67236;-67
2022/03/22 08:09:37;;;;;;;;;;;;;;;25.82;58.38;98382.16;608039;233;67837;-68
2022/03/22 08:12:07;;;;;;;;;;;;;;;25.83;58.06;98381.09;608017;233;65272;-67
2022/03/22 08:14:37;;;;;;;;;;;;;;;25.86;58.25;98380.58;608001;233;67235;-75
2022/03/22 08:17:04;;;;;;;;;;;;;;;25.88;57.50;98378.41;608600;230;66962;-66
2022/03/22 08:19:31;;;;;;;;;;;;;;;25.89;58.30;98373.82;614437;231;65516;-66
2022/03/22 08:21:59;;;;;;;;;;;;;;;25.90;58.87;98375.45;614392;231;67289;-66
2022/03/22 08:24:26;;;;;;;;;;;;;;;25.91;57.68;98377.86;614405;231;67018;-65
2022/03/22 08:26:54;;;;;;;;;;;;;;;25.93;57.99;98374.11;614430;231;65309;-67
2022/03/22 08:29:22;;;;;;;;;;;;;;;25.95;58.66;98363.88;614400;231;66934;-68
2022/03/22 08:31:52;;;;;;;;;;;;;;;25.96;58.17;98368.17;614441;231;64824;-69
2022/03/22 08:34:19;;;;;;;;;;;;;;;25.96;57.54;98368.98;614492;231;65491;-67
2022/03/22 08:36:46;;;;;;;;;;;;;;;25.98;59.02;98366.03;614435;231;67593;-68
2022/03/22 08:39:14;;;;;;;;;;;;;;;25.98;58.12;98360.64;614380;231;67009;-67
2022/03/22 08:41:41;;;;;;;;;;;;;;;25.99;58.45;98354.16;614409;230;65320;-66
2022/03/22 08:44:09;;;;;;;;;;;;;;;26.00;58.97;98356.60;614462;231;67184;-63
2022/03/22 08:46:38;;;;;;;;;;;;;;;26.01;58.88;98354.70;614457;231;67129;-64
2022/03/22 08:49:05;;;;;;;;;;;;;;;26.01;58.54;98346.63;614404;231;65631;-66
2022/03/22 08:51:33;;;;;;;;;;;;;;;26.00;58.45;98339.61;614465;231;67223;-69
2022/03/22 08:54:00;;;;;;;;;;;;;;;25.99;58.07;98336.11;614387;231;67018;-67
2022/03/22 08:56:28;;;;;;;;;;;;;;;26.00;57.76;98340.44;614388;231;65494;-66
2022/03/22 08:58:55;;;;;;;;;;;;;;;26.03;58.13;98341.78;614421;231;67236;-66
2022/03/22 09:01:28;;;;;;;;;;;;;;;26.04;58.01;98338.80;614350;231;66906;-65
2022/03/22 09:06:40;;;;;;;;;;;;;;;26.06;57.31;98327.77;614419;231;67214;-65
2022/03/22 09:09:10;;;;;;;;;;;;;;;26.08;57.52;98328.28;614307;231;66950;-69
2022/03/22 09:11:38;;;;;;;;;;;;;;;26.09;57.40;98319.94;614417;231;65384;-69
2022/03/22 09:14:05;;;;;;;;;;;;;;;26.09;57.94;98319.14;614120;231;67193;-68
2022/03/22 09:16:33;;;;;;;;;;;;;;;26.11;57.49;98312.39;614399;231;66642;-69
2022/03/22 09:19:01;;;;;;;;;;;;;;;26.12;57.22;98305.92;617401;229;64100;-69
2022/03/22 09:21:29;;;;;;;;;;;;;;;26.14;57.80;98297.58;617745;229;67194;-69
2022/03/22 09:23:57;;;;;;;;;;;;;;;26.15;57.14;98301.07;617743;229;67319;-68
2022/03/22 09:26:25;;;;;;;;;;;;;;;26.15;57.63;98299.17;617781;229;63026;-68
2022/03/22 09:28:53;;;;;;;;;;;;;;;26.15;57.34;98296.48;617777;229;67217;-71
2022/03/22 09:31:23;;;;;;;;;;;;;;;26.18;57.65;98303.21;617786;229;67010;-67
2022/03/22 09:33:52;;;;;;;;;;;;;;;26.19;57.88;98308.34;617776;229;65333;-66
2022/03/22 09:36:20;;;;;;;;;;;;;;;26.18;58.27;98301.32;617798;229;65157;-67
2022/03/22 09:38:48;;;;;;;;;;;;;;;26.12;52.27;98291.64;617801;229;67127;-65
2022/03/22 09:41:16;;;;;;;;;;;;;;;26.15;55.21;98284.91;617843;229;65260;-66
2022/03/22 09:43:47;;;;;;;;;;;;;;;26.15;57.29;98274.12;617733;229;67027;-67
2022/03/22 09:46:22;;;;;;;;;;;;;;;26.15;57.00;98260.66;617830;229;67106;-66
2022/03/22 09:48:46;;;;;;;;;;;;;;;26.15;56.78;98269.54;617613;229;63198;-66
2022/03/22 09:54:07;;;;;;;;;;;;;;;26.15;56.93;98263.35;617753;229;65031;-71
2022/03/22 09:56:32;;;;;;;;;;;;;;;26.16;56.72;98254.98;617585;229;63024;-66
2022/03/22 09:59:00;;;;;;;;;;;;;;;26.16;56.63;98260.36;617638;229;67230;-67
2022/03/22 10:01:28;;;;;;;;;;;;;;;26.16;56.19;98259.56;617824;229;64998;-67
2022/03/22 10:03:57;;;;;;;;;;;;;;;26.17;56.85;98245.83;617806;229;65490;-67
2022/03/22 10:06:25;;;;;;;;;;;;;;;26.18;56.94;98242.05;617055;229;67258;-68
2022/03/22 10:08:54;;;;;;;;;;;;;;;26.19;56.25;98232.90;617871;229;45645;-67
2022/03/22 10:11:21;;;;;;;;;;;;;;;26.21;56.13;98235.30;617730;229;65383;-68
2022/03/22 10:13:57;;;;;;;;;;;;;;;26.21;56.29;98224.52;617732;229;64544;-68
2022/03/22 10:16:25;;;;;;;;;;;;;;;26.21;56.53;98225.32;617806;229;67442;-68
2022/03/22 10:18:52;;;;;;;;;;;;;;;26.22;56.34;98221.56;617704;229;65422;-68
2022/03/22 10:21:22;;;;;;;;;;;;;;;26.23;56.21;98223.16;617867;229;47249;-68
2022/03/22 10:23:51;;;;;;;;;;;;;;;26.24;56.47;98219.38;617866;229;66933;-69
2022/03/22 10:26:18;;;;;;;;;;;;;;;26.25;55.54;98210.23;617807;226;65629;-69
2022/03/22 10:28:52;;;;;;;;;;;;;;;26.26;56.30;98203.75;619814;226;67220;-68
2022/03/22 10:31:21;;;;;;;;;;;;;;;26.27;55.90;98199.16;619878;229;67537;-68
2022/03/22 10:33:50;;;;;;;;;;;;;;;26.27;56.06;98197.30;619393;229;65554;-68
2022/03/22 10:36:21;;;;;;;;;;;;;;;26.29;56.36;98188.91;619971;229;65003;-68
2022/03/22 10:38:55;;;;;;;;;;;;;;;26.32;53.25;98174.88;619839;227;64841;-69
2022/03/22 10:41:26;;;;;;;;;;;;;;;26.34;54.90;98170.83;619833;229;63339;-70
2022/03/22 10:44:07;;;;;;;;;;;;;;;26.38;54.50;98164.87;619948;227;67275;-69
2022/03/22 10:46:35;;;;;;;;;;;;;;;26.40;54.37;98168.91;619949;229;66877;-68
2022/03/22 10:49:05;;;;;;;;;;;;;;;26.44;54.31;98166.48;619801;229;65356;-69
2022/03/22 10:51:34;;;;;;;;;;;;;;;26.43;55.12;98162.95;619597;229;67230;-67
2022/03/22 10:54:02;;;;;;;;;;;;;;;26.45;54.83;98149.21;619535;229;64694;-69
2022/03/22 10:56:30;;;;;;;;;;;;;;;26.45;54.84;98147.31;619995;229;63154;-69
2022/03/22 10:58:59;;;;;;;;;;;;;;;26.48;55.49;98149.45;619899;229;66807;-69
2022/03/22 11:01:26;;;;;;;;;;;;;;;26.48;54.70;98143.27;619757;229;65454;-69
2022/03/22 11:03:56;;;;;;;;;;;;;;;26.51;54.18;98148.92;619870;229;63039;-69
2022/03/22 11:06:25;;;;;;;;;;;;;;;26.53;54.79;98145.95;620025;229;64868;-68
2022/03/22 11:08:52;;;;;;;;;;;;;;;26.53;54.20;98149.45;619890;229;64562;-69
2022/03/22 11:11:20;;;;;;;;;;;;;;;26.54;54.60;98142.97;619900;229;65215;-69
2022/03/22 11:13:48;;;;;;;;;;;;;;;26.56;55.06;98140.00;619878;228;66895;-70
2022/03/22 11:16:16;;;;;;;;;;;;;;;26.55;54.37;98133.81;619960;227;66769;-73
2022/03/22 11:18:43;;;;;;;;;;;;;;;26.55;53.29;98133.01;618991;229;65626;-73
2022/03/22 11:21:12;;;;;;;;;;;;;;;26.57;53.64;98130.81;618680;229;64706;-73
2022/03/22 11:23:40;;;;;;;;;;;;;;;26.59;53.02;98127.85;618495;229;64927;-73
2022/03/22 11:26:11;;;;;;;;;;;;;;;26.59;52.93;98117.87;618668;229;63867;-71
2022/03/22 11:28:40;;;;;;;;;;;;;;;26.60;53.25;98103.32;618613;229;65117;-70
2022/03/22 11:31:13;;;;;;;;;;;;;;;26.60;52.35;98097.93;618644;229;67033;-70
2022/03/22 11:36:29;;;;;;;;;;;;;;;26.62;52.54;98105.72;618681;229;67237;-69
2022/03/22 11:38:58;;;;;;;;;;;;;;;26.63;52.79;98101.92;618265;229;67057;-64
2022/03/22 11:44:21;;;;;;;;;;;;;;;26.63;52.61;98094.66;593607;237;65105;-65
2022/03/22 11:46:50;;;;;;;;;;;;;;;26.64;52.34;98098.96;611140;229;66913;-64
2022/03/22 11:49:20;;;;;;;;;;;;;;;26.63;52.18;98086.58;618161;229;65316;-64
2022/03/22 11:52:06;;;;;;;;;;;;;;;26.65;52.24;98081.69;618603;229;65038;-65
2022/03/22 11:54:33;;;;;;;;;;;;;;;26.66;52.15;98091.41;618536;229;65197;-65
2022/03/22 11:57:01;;;;;;;;;;;;;;;26.65;52.70;98084.38;618667;229;65270;-68
2022/03/22 11:59:42;;;;;;;;;;;;;;;26.66;51.94;98069.03;618581;229;64650;-68
2022/03/22 12:02:15;;;;;;;;;;;;;;;26.68;52.70;98070.36;618659;229;67097;-71
2022/03/22 12:04:44;;;;;;;;;;;;;;;26.69;51.43;98061.17;618662;229;62949;-70
2022/03/22 12:07:12;;;;;;;;;;;;;;;26.71;51.76;98052.78;618636;229;67175;-70
2022/03/22 12:09:41;;;;;;;;;;;;;;;26.67;54.27;98047.16;618680;229;66650;-69
2022/03/22 12:12:10;;;;;;;;;;;;;;;26.67;52.15;98041.77;618695;229;65532;-69
2022/03/22 12:14:38;;;;;;;;;;;;;;;26.66;52.53;98042.08;618487;229;64561;-68
2022/03/22 12:17:06;;;;;;;;;;;;;;;26.66;52.18;98032.09;618365;229;64563;-65
2022/03/22 12:19:35;;;;;;;;;;;;;;;26.67;51.41;98033.69;616593;230;65341;-66
2022/03/22 12:22:04;;;;;;;;;;;;;;;26.66;52.34;98024.00;616579;230;67109;-67
2022/03/22 12:24:35;;;;;;;;;;;;;;;26.67;52.52;98017.50;616619;230;66758;-67
2022/03/22 12:27:04;;;;;;;;;;;;;;;26.66;51.52;98010.52;616562;230;65285;-69
2022/03/22 12:29:35;;;;;;;;;;;;;;;26.68;51.72;98007.52;616671;230;48224;-66
2022/03/22 12:32:06;;;;;;;;;;;;;;;26.69;50.89;98017.23;616605;230;66892;-69
2022/03/22 12:34:33;;;;;;;;;;;;;;;26.68;50.88;98011.05;616522;230;63128;-69
2022/03/22 12:37:00;;;;;;;;;;;;;;;26.71;50.98;98006.95;616629;230;66745;-67
2022/03/22 12:39:28;;;;;;;;;;;;;;;26.69;50.88;97996.46;616586;230;66558;-69
2022/03/22 12:41:57;;;;;;;;;;;;;;;26.72;51.29;98003.18;616596;230;64082;-67
2022/03/22 12:44:25;;;;;;;;;;;;;;;26.73;50.58;97989.39;616592;230;66987;-68
2022/03/22 12:46:53;;;;;;;;;;;;;;;26.73;51.23;97984.00;616702;230;64540;-72
2022/03/22 12:49:21;;;;;;;;;;;;;;;26.74;50.75;97974.84;616562;230;65485;-72
2022/03/22 12:51:49;;;;;;;;;;;;;;;26.76;51.05;97969.98;616602;230;66947;-68
2022/03/22 12:54:19;;;;;;;;;;;;;;;26.77;51.70;97966.17;616609;230;66727;-69
2022/03/22 12:56:48;;;;;;;;;;;;;;;26.77;52.61;97960.78;616573;230;63000;-69
2022/03/22 12:59:22;;;;;;;;;;;;;;;26.79;52.42;97964.01;616659;230;66606;-69
2022/03/22 13:01:57;;;;;;;;;;;;;;;26.82;52.23;97956.41;617860;228;64472;-65
2022/03/22 13:04:26;;;;;;;;;;;;;;;26.82;53.19;97954.55;619755;228;62964;-66
2022/03/22 13:06:58;;;;;;;;;;;;;;;26.80;52.49;97945.92;621266;228;66923;-67
2022/03/22 13:12:13;;;;;;;;;;;;;;;26.85;51.97;97950.47;621274;228;65392;-68
2022/03/22 13:17:23;;;;;;;;;;;;;;;26.85;52.69;97943.17;613097;228;66507;-68
2022/03/22 13:19:51;;;;;;;;;;;;;;;26.87;52.70;97942.87;622615;228;65278;-68
2022/03/22 13:22:26;;;;;;;;;;;;;;;26.87;52.41;97930.19;622620;228;64583;-69
2022/03/22 13:24:54;;;;;;;;;;;;;;;26.88;52.56;97933.71;622520;228;66843;-67
2022/03/22 13:27:24;;;;;;;;;;;;;;;26.90;52.75;97934.20;622164;228;65280;-67
2022/03/22 13:29:51;;;;;;;;;;;;;;;26.91;52.54;97933.13;622586;228;64428;-68
2022/03/22 13:32:23;;;;;;;;;;;;;;;26.92;52.37;97915.84;622623;228;65328;-68
2022/03/22 13:34:51;;;;;;;;;;;;;;;26.93;52.00;97929.06;622350;228;65309;-67
2022/03/22 13:37:20;;;;;;;;;;;;;;;26.95;52.50;97920.66;622241;228;67347;-66
2022/03/22 13:39:50;;;;;;;;;;;;;;;26.95;52.71;97907.97;622474;228;66678;-67
2022/03/22 13:42:19;;;;;;;;;;;;;;;26.96;52.31;97924.98;622612;228;65568;-66